ACT        NSW        VIC        QLD        SA        WA        TAS        NT        INFO        CALC            by VK5ZD

  Atmospheric Gas Attenuation - ITU Rec 676-11   --------------- db/100km ---------------
QLD Stations Date Time Temp RH % AH g/m3 Dew Point Wind Direction Speed kph Gust kph Barometer mB Rainfall Since 9am 24GHz 47GHz 76GHz 122GHz 134GHz 241GHz
Alva Beach 03 07:00 28.6 81 22.77 25 11 17 1011.6 0 48.5 45.4 91.3 241.7 271.9 944.9
Amberley 03 07:00 24.5 71 15.89 18.9 13 15 1014.3 0 34.4 34.6 63.5 167.8 179.9 624.6
Applethorpe 03 07:50 18.4 84 13.21 15.6 4 4 1013.1 7.6 29.2 32.2 56.4 148.8 154.7 535.7
Archerfield 03 07:00 24.4 71 15.8 18.8 17 22 1014.5 0 34.2 34.5 63.2 167.0 178.9 621.0
Ayr 03 07:00 27.4 89 23.42 25.4 6 9 1013.1 1 50.1 47.5 96.1 254.6 287.3 998.3
Ballera 03 07:00 30.7 25 7.87 8.4 15 19 1013.2 0 17.3 20.6 30.0 78.6 72.0 248.0
Beaudesert Aws 03 07:00 23.9 74 16.01 19 11 17 1014.5 0 34.7 35.1 64.6 170.6 183.1 635.7
Beerburrum 03 07:00 24.1 75 16.41 19.4 6 13 1013.1 0.2 35.5 35.7 66.1 174.7 188.3 653.6
Biloela 03 07:00 24.7 81 18.33 21.2 6 9 1014.3 0 39.6 39.0 74.4 196.8 215.5 748.5
Birdsville 03 07:00 28.4 30 8.34 9.2 9 11 1012.8 0 18.4 21.7 32.4 84.9 79.1 272.5
Blackall 03 07:00 26.3 61 15.1 18.4 13 17 1013.2 0 32.6 32.5 58.7 155.0 164.7 571.7
Blackwater Airport 03 07:00 26.2 75 18.46 21.4 13 19 1013.8 0 39.7 38.5 73.5 194.4 213.1 740.4
Bowen Airport Aws 03 07:00 27.7 80 21.4 23.9 13 15 1011.8 0 45.8 43.2 85.7 226.8 253.3 880.3
Brisbane 03 07:00 25.1 70 16.2 19.2 7 13 1014.6 0 35.0 34.9 64.4 170.2 183.0 635.3
Brisbane Airport 03 07:00 24.5 75 16.78 19.8 13 17 1014.5 0 36.3 36.2 67.5 178.4 192.9 669.7
Bundaberg 03 07:00 24.3 79 17.48 20.4 17 24 1014 0 37.8 37.6 70.8 187.3 203.7 707.5
Burketown Airport 03 07:00 29.1 81 23.4 25.5 9 11 1009.4 0 49.8 46.3 93.6 247.9 279.7 972.3
Cairns 03 07:00 27.8 76 20.44 23.2 15 19 1010.9 0 43.7 41.3 80.9 214.2 237.9 826.8
Cairns Racecourse 03 07:00 26 82 19.96 22.7 9 13 1013.1 0 42.9 41.4 80.7 213.6 236.6 821.8
Camooweal 03 07:00 29.4 32 9.4 11 11 15 1009.9 0 20.5 22.8 35.4 92.9 89.3 308.7
Canungra (Defence) 03 07:00 22.3 92 18.16 20.9 0 0 1013.1 6.8 39.4 39.7 75.9 200.8 219.7 762.8
Cape Flattery 03 07:00 28.9 80 22.86 25.1 19 28 1010.5 0.2 48.7 45.4 91.3 241.7 272.0 945.4
Cape Moreton 03 07:00 24 82 17.84 20.7 32 43 1013.8 0 38.6 38.3 72.8 192.4 210.0 729.1
Carters Bore 03 07:00 29.7 27 8.06 8.7 11 17 1013.1 0 17.7 21.1 31.0 81.2 74.9 257.9
Century Mine 03 07:00 29.5 61 18.01 21.4 0 0 1009.3 0 38.4 36.1 68.2 180.4 197.0 684.8
Charleville 03 07:00 26.5 53 13.27 16.4 13 19 1013.6 0 28.7 29.5 51.1 134.9 140.0 485.6
Chinchilla Airport 03 07:00 24.1 79 17.28 20.2 4 9 1014.6 0 37.4 37.3 70.1 185.4 201.4 699.2
Clermont Airport 03 07:00 25.2 77 17.93 20.9 6 9 1013.2 0 38.7 37.9 72.0 190.4 207.9 722.1
Cloncurry 03 07:00 30.4 31 9.61 11.4 26 33 1010.5 0 20.9 22.9 35.7 93.7 90.6 313.1
Coen Airport 03 07:00 26.1 87 21.3 23.8 0 0 1009.8 0 45.8 43.8 86.9 230.0 256.9 892.5
Cooktown 03 07:00 29.4 75 22.02 24.5 13 20 1010.5 0 46.9 43.5 86.6 229.3 257.0 893.3
Coolangatta 03 07:50 23.9 76 16.44 19.4 26 32 1014.3 0.4 35.6 35.8 66.5 175.7 189.4 657.4
Cowley Beach (Defence) 03 07:00 26 97 23.62 25.5 0 4 1013.1 0 50.7 48.7 99.0 262.2 296.2 1029.1
Dalby 03 07:00 23.9 75 16.22 19.2 6 9 1014.1 0 35.2 35.4 65.5 173.0 186.1 646.1
Double Island Point 03 07:00 22.8 90 18.29 21.1 37 44 1013.4 0.2 39.7 39.7 76.1 201.1 220.3 765.0
Emerald 03 07:00 25.9 91 22.03 24.3 15 19 1013.6 0 47.3 45.5 91.0 241.0 270.1 938.4
Gatton 03 07:00 23.4 85 17.87 20.7 9 13 1013.1 0 38.7 38.6 73.4 194.2 212.0 736.2
Gayndah 03 07:00 24.1 79 17.28 20.2 4 6 1014.2 0 37.4 37.3 70.1 185.3 201.3 699.0
Georgetown Airport 03 07:00 27.7 63 16.85 20 9 15 1010.4 0 36.2 34.8 64.8 171.4 185.4 644.0
Gladstone 03 07:00 26.4 76 18.92 21.8 13 24 1013.9 0 40.6 39.3 75.4 199.6 219.5 762.6
Gladstone Airport 03 07:00 26 77 18.75 21.7 9 11 1013.9 1.4 40.3 39.1 75.1 198.5 218.1 757.6
Gold Coast Seaway 03 07:00 25.3 69 16.15 19.2 19 26 1014.3 0 34.9 34.7 64.0 169.1 181.8 631.1
Goondiwindi 03 07:50 23.9 76 16.44 19.4 7 9 1013.1 0 35.6 35.8 66.4 175.5 189.2 656.9
Greenbank (Defence) 03 07:00 24.3 74 16.37 19.4 7 15 1013.1 0 35.4 35.5 65.8 173.8 187.2 649.9
Gympie 03 07:00 22.8 96 19.51 22.1 6 7 1014.2 1.2 42.3 42.2 82.1 217.1 239.9 832.9
Hamilton Island 03 07:00 27.6 81 21.55 24 20 26 1011.8 0 46.1 43.6 86.5 229.0 256.0 889.7
Hervey Bay 03 07:00 24.4 84 18.69 21.5 15 22 1013.9 0.2 40.4 39.8 76.4 202.0 221.9 770.6
Horn Island 03 07:00 27.8 90 24.21 26 6 7 1009.2 1.2 51.7 48.7 99.4 263.2 298.1 1036.0
Hughenden 03 07:00 27.3 59 15.44 18.6 11 15 1010.7 0 33.2 32.6 59.2 156.4 166.9 579.4
Innisfail Aero 03 07:00 25.6 94 22.38 24.6 6 7 1011.4 0 48.1 46.3 93.0 246.3 276.6 961.0
Julia Creek 03 07:00 28.2 42 11.55 14.4 19 26 1010.4 0 25.0 26.2 43.5 114.5 115.6 400.3
Kingaroy 03 07:00 22.6 80 16.07 19 11 17 1014.4 0 34.9 35.7 65.9 174.2 187.2 649.6
Kowanyama 03 07:00 28.9 77 22 24.5 7 11 1010.3 0 46.9 43.7 87.1 230.6 258.4 898.0
Lady Elliot Island 03 07:00 26.4 81 20.16 22.9 19 26 1013.5 0 43.3 41.6 81.3 215.0 238.5 828.5
Lake Julius 03 07:00 28.9 40 11.43 14.3 0 0 1013.1 0 24.7 25.9 42.8 112.6 113.4 392.8
Lochington 03 07:00 26 76 18.5 21.4 9 17 1013.2 0 39.8 38.6 73.9 195.4 214.2 744.1
Lockhart River 03 07:00 26.3 97 24.01 25.8 0 0 1010 0 51.5 49.2 100.4 266.0 301.1 1045.9
Longreach 03 07:00 27.7 54 14.45 17.8 24 33 1012.4 0 31.1 30.9 55.0 145.1 153.0 531.1
Low Isles 03 07:00 28.3 84 23.22 25.3 19 22 1010.9 0 49.5 46.5 93.8 248.5 280.1 973.6
Mackay 03 07:00 26.6 89 22.4 24.6 15 20 1012.5 1 48.0 45.8 91.9 243.4 273.4 950.0
Mackay Airport 03 07:00 27.1 86 22.26 24.6 17 22 1012.5 0.8 47.7 45.3 90.6 240.0 269.3 935.7
Mackay Racecourse 03 07:00 27 87 22.39 24.6 13 20 1013.1 0 47.9 45.6 91.4 242.1 271.9 944.7
Mareeba 03 07:00 25 82 18.88 21.7 13 17 1010.6 0 40.7 39.7 76.5 202.3 222.5 772.9
Maryborough 03 07:00 24.9 78 17.85 20.8 15 19 1014.2 0 38.5 38.0 72.0 190.3 207.7 721.3
Middle Percy Island 03 07:00 26.4 85 21.16 23.7 20 28 1012.8 0 45.4 43.5 86.0 227.8 254.1 882.9
Miles 03 07:00 24 99 21.54 23.8 9 13 1014.6 0 46.5 45.6 90.9 240.7 269.2 934.8
Moranbah Airport 03 07:00 25.7 84 20.11 22.8 13 17 1012.8 0 43.2 41.8 81.7 216.3 239.8 833.1
Mornington Island Airport 03 07:00 29.7 87 25.96 27.3 9 15 1009.6 19.4 55.2 51.1 105.8 280.4 319.7 1110.9
Mount Isa 03 07:00 29.8 27 8.1 8.8 6 7 1010.7 0 17.8 21.0 31.0 81.2 75.1 258.6
Mount Stuart (Defence) 03 07:00 26.1 99 24.24 25.9 0 0 1013.1 0 52.0 50.0 102.1 270.5 306.4 1064.5
Nambour 03 07:00 25 72 16.57 19.6 6 11 1014.3 0.2 35.8 35.6 66.1 174.7 188.5 654.6
New May Downs 03 07:00 30.4 27 8.37 9.3 9 17 1013.1 0 18.3 21.3 31.7 83.1 77.5 267.2
Normanton 03 07:00 29.6 86 25.53 27 9 17 1010.1 0.6 54.3 50.3 103.8 274.9 312.9 1087.6
Oakey 03 07:00 21.5 87 16.4 19.2 11 13 1014.4 0.8 35.8 36.8 68.4 180.8 194.9 676.4
Palmerville 03 07:00 26.6 80 20.14 22.9 9 13 1010.3 0.2 43.2 41.3 80.7 213.7 237.0 823.5
Portable Qfrg Nr 03 06:50 27.6 76 20.22 23.1 4 6 1013.1 1.4 43.3 41.1 80.2 212.3 235.5 818.4
Portable Qfri (Inglewood) 03 06:50 23.1 67 13.85 16.8 2 4 1013.1 0 30.2 31.6 55.8 147.2 154.2 534.6
Portable Qfrj (North Tamborine) 03 06:50 21.7 76 14.5 17.3 13 17 1013.1 4.6 31.7 33.2 59.6 157.4 166.3 576.5
Portable Qfrk (Ravenshoe) 03 06:50 21.2 89 16.49 19.3 13 15 1013.1 0 36.0 37.0 69.0 182.5 196.9 683.3
Portable Qfrl (Mt Fox) 03 06:50 22.6 95 19.08 21.7 4 6 1013.1 0 41.4 41.4 80.1 211.8 233.4 810.4
Portable Qfrm (Anduramba) 03 06:50 20 82 14.17 16.8 19 20 1013.1 1.4 31.1 33.3 59.5 157.0 165.2 572.6
Portable Qfrn (Wieambilla) 03 06:50 24.6 74 16.65 19.8 6 7 1013.1 0 36.0 35.9 66.7 176.4 190.5 661.5
Proserpine 03 07:00 25.6 91 21.66 24 9 11 1012.1 0.2 46.6 44.9 89.4 236.7 264.9 920.2
Redcliffe 03 07:00 25.1 75 17.36 20.4 17 26 1014.4 0 37.5 37.0 69.6 183.9 199.9 694.1
Redland (Alexandra Hills) 03 07:00 24.2 78 17.16 20.1 4 7 1013.1 0 37.1 37.0 69.4 183.5 199.1 691.3
Richmond 03 07:00 28.3 49 13.55 16.6 15 19 1010.4 0 29.2 29.2 50.9 134.3 140.0 485.9
Rockhampton 03 07:00 26 79 19.23 22.1 11 17 1013.7 0 41.3 40.0 77.3 204.5 225.4 782.9
Rolleston Airport 03 07:00 25.9 75 18.16 21.1 6 7 1013.9 0 39.1 38.1 72.4 191.6 209.5 727.7
Roma 03 07:00 23.7 100 21.39 23.7 7 11 1014.2 0 46.2 45.5 90.5 239.5 267.7 929.7
Samuel Hill 03 07:00 26.3 90 22.28 24.5 11 17 1013.2 0 47.8 45.8 91.8 242.9 272.7 947.4
Scherger 03 07:00 26.7 89 22.53 24.7 4 7 1009.8 0 48.3 45.9 92.3 244.4 274.7 954.4
South Johnstone 03 07:00 25.8 93 22.39 24.6 6 9 1011.9 0 48.1 46.2 92.8 245.8 276.1 959.3
St George 03 07:00 25 62 14.27 17.2 9 11 1013.7 0 30.9 31.6 56.2 148.4 156.2 541.8
St Lawrence 03 07:00 26.8 81 20.62 23.3 9 13 1013.1 1.6 44.2 42.2 83.0 219.7 244.3 848.8
Sunshine Coast Airport 03 07:00 25.3 72 16.86 19.9 22 32 1014.1 0 36.4 36.0 67.1 177.4 192.0 666.6
Tewantin 03 07:00 25.2 75 17.46 20.5 13 20 1014.2 0.6 37.7 37.1 69.9 184.9 201.1 698.2
Thargomindah 03 07:00 28.3 44 12.17 14.9 13 19 1013.9 0 26.3 27.2 45.8 120.8 123.2 427.1
The Monument 03 07:00 28.5 28 7.83 8.2 9 13 1011.6 0.2 17.3 21.0 30.7 80.3 73.5 252.8
Tin Can Bay (Defence) 03 07:00 24.1 79 17.28 20.2 7 17 1013.1 0 37.4 37.2 70.0 185.2 201.2 698.4
Toowoomba 03 07:00 20.9 96 17.48 20.2 6 9 1014.9 0.2 38.1 39.1 74.1 196.0 213.4 740.5
Townsville 03 07:00 28.7 80 22.61 24.9 7 7 1011.7 0 48.2 45.1 90.4 239.3 269.0 934.8
Townsville - Fanning River (Defence) 03 07:00 26.3 84 20.8 23.4 0 4 1011.4 0 44.7 42.8 84.3 223.2 248.5 863.4
Trepell 03 07:00 28 32 8.7 9.8 13 17 1011.3 0.2 19.1 22.2 33.7 88.3 83.3 287.2
Urandangi 03 07:00 27.2 28 7.29 7.1 7 11 1011 0 16.3 20.5 29.4 76.8 68.9 236.5
Warwick 03 07:00 21.3 81 15.1 17.9 13 19 1014.4 0 33.0 34.5 62.7 165.5 176.0 610.5
Weipa 03 07:00 26.7 91 23.03 25.1 7 9 1009.7 3.4 49.4 46.9 94.8 251.1 282.9 983.0
Wellcamp Airport 03 07:00 20.7 88 15.84 18.6 11 13 1013.8 1.2 34.6 36.1 66.5 175.7 188.4 653.6
Williamson 03 07:00 27 77 19.82 22.6 9 15 1013.2 0 42.5 40.6 79.0 209.0 231.3 803.6
Willis Island 03 07:00 29.3 77 22.48 24.8 22 26 1010.1 0 47.9 44.4 88.9 235.4 264.5 919.3
Windorah 03 07:00 28.9 39 11.14 13.9 17 20 1012.7 0 24.1 25.5 41.7 109.8 109.9 380.7
Winton 03 07:00 28.2 50 13.75 16.8 19 24 1011.4 0 29.6 29.6 51.8 136.7 142.9 495.8
Woolshed 03 07:00 23.4 96 20.19 22.7 4 6 1011.4 0 43.7 43.1 84.6 223.8 248.5 862.8
Yeppoon 03 07:00 27.1 88 22.77 24.9 13 20 1013.6 0 48.7 46.4 93.3 246.9 277.8 965.3

Last Refresh: 03-Dec-2021 07:39:55

Bureau of Meteorology